Terminal Aerodrome Forecast
Issued by NWS Albany, NY

Home | Current Version | Previous Version | Text Only | Print | Product List | Glossary On
Versions: 1 2 3 4 5 6 7 8 9 10 11 12 13 14 15 16 17 18 19 20 21 22
000
FTUS41 KALY 291229 CCA
TAFPOU
TAF COR
KPOU 291229Z 2912/3012 22003KT P6SM SCT120
     FM291500 20007KT P6SM FEW040 SCT120 BKN250
     FM292300 17004KT P6SM BKN180
     FM300600 VRB03KT 5SM -SHRA BR BKN015 OVC040=

USA.gov is the U.S. government's official web portal to all federal, state and local government web resources and services.